sensor_id;sensor_type;location;lat;lon;timestamp;pressure;altitude;pressure_sealevel;temperature;humidity
34177;BME280;20450;49.074;9.158;2023-05-11T00:00:48;99576.66;;;13.70;75.53
34177;BME280;20450;49.074;9.158;2023-05-11T00:03:15;99571.25;;;13.70;75.41
34177;BME280;20450;49.074;9.158;2023-05-11T00:05:46;99576.31;;;13.78;75.38
34177;BME280;20450;49.074;9.158;2023-05-11T00:08:13;99571.25;;;13.82;75.26
34177;BME280;20450;49.074;9.158;2023-05-11T00:10:46;99582.69;;;13.84;75.66
34177;BME280;20450;49.074;9.158;2023-05-11T00:13:13;99571.59;;;13.74;75.09
34177;BME280;20450;49.074;9.158;2023-05-11T00:15:40;99572.31;;;13.69;75.40
34177;BME280;20450;49.074;9.158;2023-05-11T00:18:08;99574.31;;;13.74;74.98
34177;BME280;20450;49.074;9.158;2023-05-11T00:20:35;99577.50;;;13.71;74.78
34177;BME280;20450;49.074;9.158;2023-05-11T00:23:02;99573.72;;;13.72;75.04
34177;BME280;20450;49.074;9.158;2023-05-11T00:25:29;99574.66;;;13.66;75.41
34177;BME280;20450;49.074;9.158;2023-05-11T00:27:56;99573.63;;;13.67;75.55
34177;BME280;20450;49.074;9.158;2023-05-11T00:30:23;99571.00;;;13.72;75.60
34177;BME280;20450;49.074;9.158;2023-05-11T00:32:50;99570.53;;;13.63;75.65
34177;BME280;20450;49.074;9.158;2023-05-11T00:35:18;99563.34;;;13.57;75.81
34177;BME280;20450;49.074;9.158;2023-05-11T00:37:45;99573.72;;;13.60;76.13
34177;BME280;20450;49.074;9.158;2023-05-11T00:40:12;99570.88;;;13.55;76.13
34177;BME280;20450;49.074;9.158;2023-05-11T00:42:39;99570.31;;;13.42;76.71
34177;BME280;20450;49.074;9.158;2023-05-11T00:45:07;99574.44;;;13.33;77.26
34177;BME280;20450;49.074;9.158;2023-05-11T00:47:34;99572.53;;;13.33;77.47
34177;BME280;20450;49.074;9.158;2023-05-11T00:50:01;99562.72;;;13.21;77.25
34177;BME280;20450;49.074;9.158;2023-05-11T00:52:29;99571.56;;;13.16;77.68
34177;BME280;20450;49.074;9.158;2023-05-11T00:54:56;99575.22;;;13.22;77.75
34177;BME280;20450;49.074;9.158;2023-05-11T00:57:30;99571.59;;;13.28;77.60
34177;BME280;20450;49.074;9.158;2023-05-11T00:59:58;99570.66;;;13.34;77.24
34177;BME280;20450;49.074;9.158;2023-05-11T01:02:31;99573.03;;;13.42;77.24
34177;BME280;20450;49.074;9.158;2023-05-11T01:04:59;99564.97;;;13.47;76.99
34177;BME280;20450;49.074;9.158;2023-05-11T01:07:31;99566.19;;;13.51;76.82
34177;BME280;20450;49.074;9.158;2023-05-11T01:10:07;99572.56;;;13.56;76.40
34177;BME280;20450;49.074;9.158;2023-05-11T01:12:50;99568.78;;;13.57;75.90
34177;BME280;20450;49.074;9.158;2023-05-11T01:18:31;99559.56;;;13.58;75.56
34177;BME280;20450;49.074;9.158;2023-05-11T01:21:10;99570.06;;;13.55;75.41
34177;BME280;20450;49.074;9.158;2023-05-11T01:23:53;99560.03;;;13.55;75.66
34177;BME280;20450;49.074;9.158;2023-05-11T01:26:43;99557.91;;;13.57;76.54
34177;BME280;20450;49.074;9.158;2023-05-11T01:29:45;99570.41;;;13.58;78.10
34177;BME280;20450;49.074;9.158;2023-05-11T01:32:27;99561.94;;;13.55;78.39
34177;BME280;20450;49.074;9.158;2023-05-11T01:35:06;99561.34;;;13.53;77.71
34177;BME280;20450;49.074;9.158;2023-05-11T01:37:40;99567.47;;;13.37;77.43
34177;BME280;20450;49.074;9.158;2023-05-11T01:40:15;99562.13;;;13.19;77.61
34177;BME280;20450;49.074;9.158;2023-05-11T01:42:48;99570.50;;;13.17;77.95
34177;BME280;20450;49.074;9.158;2023-05-11T01:45:17;99559.03;;;13.15;77.48
34177;BME280;20450;49.074;9.158;2023-05-11T01:47:49;99564.38;;;13.22;77.35
34177;BME280;20450;49.074;9.158;2023-05-11T01:50:17;99564.59;;;13.09;77.75
34177;BME280;20450;49.074;9.158;2023-05-11T01:52:46;99563.91;;;13.13;77.52
34177;BME280;20450;49.074;9.158;2023-05-11T01:55:18;99552.19;;;13.01;77.96
34177;BME280;20450;49.074;9.158;2023-05-11T01:57:51;99560.56;;;13.00;77.97
34177;BME280;20450;49.074;9.158;2023-05-11T02:00:21;99555.19;;;12.93;78.14
34177;BME280;20450;49.074;9.158;2023-05-11T02:02:53;99555.59;;;12.67;78.95
34177;BME280;20450;49.074;9.158;2023-05-11T02:05:22;99561.28;;;12.48;79.65
34177;BME280;20450;49.074;9.158;2023-05-11T02:07:51;99571.09;;;12.31;80.92
34177;BME280;20450;49.074;9.158;2023-05-11T02:10:24;99555.59;;;12.38;80.90
34177;BME280;20450;49.074;9.158;2023-05-11T02:12:53;99566.88;;;12.53;80.79
34177;BME280;20450;49.074;9.158;2023-05-11T02:18:06;99565.81;;;12.54;80.28
34177;BME280;20450;49.074;9.158;2023-05-11T02:20:35;99565.47;;;12.62;80.25
34177;BME280;20450;49.074;9.158;2023-05-11T02:23:05;99562.03;;;12.55;80.21
34177;BME280;20450;49.074;9.158;2023-05-11T02:25:35;99568.34;;;12.49;80.33
34177;BME280;20450;49.074;9.158;2023-05-11T02:28:03;99568.97;;;12.51;80.19
34177;BME280;20450;49.074;9.158;2023-05-11T02:30:31;99567.56;;;12.48;80.40
34177;BME280;20450;49.074;9.158;2023-05-11T02:33:07;99566.06;;;12.64;79.45
34177;BME280;20450;49.074;9.158;2023-05-11T02:35:42;99575.53;;;12.73;79.20
34177;BME280;20450;49.074;9.158;2023-05-11T02:38:11;99580.41;;;12.82;79.09
34177;BME280;20450;49.074;9.158;2023-05-11T02:40:45;99576.53;;;12.90;78.87
34177;BME280;20450;49.074;9.158;2023-05-11T02:43:19;99579.38;;;12.95;78.46
34177;BME280;20450;49.074;9.158;2023-05-11T02:45:59;99572.34;;;13.05;78.22
34177;BME280;20450;49.074;9.158;2023-05-11T02:48:35;99571.66;;;13.10;78.58
34177;BME280;20450;49.074;9.158;2023-05-11T02:51:06;99566.25;;;13.10;79.90
34177;BME280;20450;49.074;9.158;2023-05-11T02:53:41;99566.00;;;13.11;80.27
34177;BME280;20450;49.074;9.158;2023-05-11T02:56:10;99568.34;;;13.08;80.69
34177;BME280;20450;49.074;9.158;2023-05-11T02:58:38;99567.88;;;13.11;81.03
34177;BME280;20450;49.074;9.158;2023-05-11T03:01:26;99565.47;;;12.91;80.66
34177;BME280;20450;49.074;9.158;2023-05-11T03:03:58;99564.38;;;12.81;81.12
34177;BME280;20450;49.074;9.158;2023-05-11T03:06:29;99563.69;;;12.85;81.00
34177;BME280;20450;49.074;9.158;2023-05-11T03:14:19;99553.19;;;12.89;79.59
34177;BME280;20450;49.074;9.158;2023-05-11T03:16:48;99561.19;;;12.84;79.79
34177;BME280;20450;49.074;9.158;2023-05-11T03:19:18;99562.38;;;12.88;79.63
34177;BME280;20450;49.074;9.158;2023-05-11T03:21:45;99565.31;;;12.75;79.96
34177;BME280;20450;49.074;9.158;2023-05-11T03:24:15;99560.09;;;12.73;80.17
34177;BME280;20450;49.074;9.158;2023-05-11T03:26:44;99561.53;;;12.76;80.02
34177;BME280;20450;49.074;9.158;2023-05-11T03:29:14;99557.44;;;12.55;81.12
34177;BME280;20450;49.074;9.158;2023-05-11T03:31:43;99557.94;;;12.64;81.15
34177;BME280;20450;49.074;9.158;2023-05-11T03:34:10;99548.56;;;12.78;80.87
34177;BME280;20450;49.074;9.158;2023-05-11T03:36:44;99552.22;;;12.83;80.48
34177;BME280;20450;49.074;9.158;2023-05-11T03:39:16;99551.91;;;12.91;80.20
34177;BME280;20450;49.074;9.158;2023-05-11T03:41:44;99548.59;;;12.89;79.75
34177;BME280;20450;49.074;9.158;2023-05-11T03:44:17;99553.69;;;12.97;79.76
34177;BME280;20450;49.074;9.158;2023-05-11T03:46:48;99547.94;;;13.05;79.54
34177;BME280;20450;49.074;9.158;2023-05-11T03:49:17;99543.25;;;13.12;79.39
34177;BME280;20450;49.074;9.158;2023-05-11T03:51:46;99555.75;;;13.02;78.98
34177;BME280;20450;49.074;9.158;2023-05-11T03:54:14;99549.84;;;13.05;79.11
34177;BME280;20450;49.074;9.158;2023-05-11T03:56:42;99551.97;;;13.03;78.81
34177;BME280;20450;49.074;9.158;2023-05-11T03:59:13;99552.34;;;13.06;78.47
34177;BME280;20450;49.074;9.158;2023-05-11T04:01:42;99548.78;;;13.06;78.61
34177;BME280;20450;49.074;9.158;2023-05-11T04:04:10;99551.50;;;13.06;79.19
34177;BME280;20450;49.074;9.158;2023-05-11T04:06:37;99557.88;;;13.11;79.70
34177;BME280;20450;49.074;9.158;2023-05-11T04:09:12;99559.03;;;13.15;79.63
34177;BME280;20450;49.074;9.158;2023-05-11T04:11:39;99558.56;;;13.18;78.85
34177;BME280;20450;49.074;9.158;2023-05-11T04:14:06;99555.63;;;13.20;78.96
34177;BME280;20450;49.074;9.158;2023-05-11T04:16:33;99561.50;;;13.05;79.19
34177;BME280;20450;49.074;9.158;2023-05-11T04:19:00;99551.00;;;12.97;79.86
34177;BME280;20450;49.074;9.158;2023-05-11T04:21:28;99558.47;;;13.02;79.89
34177;BME280;20450;49.074;9.158;2023-05-11T04:23:55;99553.03;;;13.02;80.15
34177;BME280;20450;49.074;9.158;2023-05-11T04:26:24;99557.16;;;13.04;79.65
34177;BME280;20450;49.074;9.158;2023-05-11T04:28:51;99553.47;;;12.99;79.51
34177;BME280;20450;49.074;9.158;2023-05-11T04:31:18;99556.41;;;12.97;79.50
34177;BME280;20450;49.074;9.158;2023-05-11T04:33:46;99554.56;;;12.80;79.95
34177;BME280;20450;49.074;9.158;2023-05-11T04:36:14;99554.16;;;12.65;80.45
34177;BME280;20450;49.074;9.158;2023-05-11T04:38:41;99552.09;;;12.78;80.01
34177;BME280;20450;49.074;9.158;2023-05-11T04:41:09;99552.72;;;12.92;80.10
34177;BME280;20450;49.074;9.158;2023-05-11T04:43:39;99552.94;;;12.79;80.00
34177;BME280;20450;49.074;9.158;2023-05-11T04:46:08;99551.28;;;12.78;79.75
34177;BME280;20450;49.074;9.158;2023-05-11T04:48:35;99551.31;;;12.89;78.95
34177;BME280;20450;49.074;9.158;2023-05-11T04:51:03;99550.63;;;12.94;79.13
34177;BME280;20450;49.074;9.158;2023-05-11T04:53:32;99552.56;;;13.05;79.05
34177;BME280;20450;49.074;9.158;2023-05-11T04:55:59;99551.03;;;13.09;78.25
34177;BME280;20450;49.074;9.158;2023-05-11T04:58:27;99554.94;;;13.13;77.83
34177;BME280;20450;49.074;9.158;2023-05-11T05:00:56;99553.75;;;13.20;77.87
34177;BME280;20450;49.074;9.158;2023-05-11T05:03:23;99552.13;;;13.31;77.61
34177;BME280;20450;49.074;9.158;2023-05-11T05:05:50;99550.72;;;13.40;77.59
34177;BME280;20450;49.074;9.158;2023-05-11T05:08:17;99550.16;;;13.49;77.23
34177;BME280;20450;49.074;9.158;2023-05-11T05:10:44;99550.84;;;13.56;76.63
34177;BME280;20450;49.074;9.158;2023-05-11T05:13:13;99562.50;;;13.45;76.78
34177;BME280;20450;49.074;9.158;2023-05-11T05:15:49;99555.34;;;13.51;76.57
34177;BME280;20450;49.074;9.158;2023-05-11T05:18:19;99559.22;;;13.55;76.24
34177;BME280;20450;49.074;9.158;2023-05-11T05:20:47;99562.88;;;13.60;76.36
34177;BME280;20450;49.074;9.158;2023-05-11T05:23:15;99569.00;;;13.67;76.38
34177;BME280;20450;49.074;9.158;2023-05-11T05:25:42;99566.88;;;13.69;75.87
34177;BME280;20450;49.074;9.158;2023-05-11T05:28:10;99569.59;;;13.58;76.06
34177;BME280;20450;49.074;9.158;2023-05-11T05:30:37;99568.19;;;13.67;76.06
34177;BME280;20450;49.074;9.158;2023-05-11T05:33:05;99564.28;;;13.74;75.74
34177;BME280;20450;49.074;9.158;2023-05-11T05:35:35;99578.19;;;13.78;75.29
34177;BME280;20450;49.074;9.158;2023-05-11T05:38:04;99573.97;;;13.82;75.30
34177;BME280;20450;49.074;9.158;2023-05-11T05:40:31;99574.44;;;13.79;75.09
34177;BME280;20450;49.074;9.158;2023-05-11T05:42:59;99578.31;;;13.83;75.33
34177;BME280;20450;49.074;9.158;2023-05-11T05:45:26;99572.66;;;13.84;75.35
34177;BME280;20450;49.074;9.158;2023-05-11T05:47:54;99581.97;;;13.88;74.91
34177;BME280;20450;49.074;9.158;2023-05-11T05:50:21;99573.34;;;13.92;75.19
34177;BME280;20450;49.074;9.158;2023-05-11T05:52:51;99579.84;;;13.91;75.21
34177;BME280;20450;49.074;9.158;2023-05-11T05:55:21;99578.53;;;13.93;75.21
34177;BME280;20450;49.074;9.158;2023-05-11T05:57:49;99576.66;;;13.94;75.23
34177;BME280;20450;49.074;9.158;2023-05-11T06:00:16;99580.91;;;14.01;77.61
34177;BME280;20450;49.074;9.158;2023-05-11T06:02:51;99573.09;;;14.16;78.04
34177;BME280;20450;49.074;9.158;2023-05-11T06:05:23;99579.00;;;14.25;76.34
34177;BME280;20450;49.074;9.158;2023-05-11T06:07:52;99581.34;;;14.33;77.91
34177;BME280;20450;49.074;9.158;2023-05-11T06:10:36;99584.06;;;14.33;74.51
34177;BME280;20450;49.074;9.158;2023-05-11T06:13:04;99587.81;;;14.43;75.38
34177;BME280;20450;49.074;9.158;2023-05-11T06:15:34;99588.50;;;14.50;75.59
34177;BME280;20450;49.074;9.158;2023-05-11T06:18:29;99587.28;;;14.58;74.61
34177;BME280;20450;49.074;9.158;2023-05-11T06:20:57;99589.84;;;14.64;75.08
34177;BME280;20450;49.074;9.158;2023-05-11T06:23:27;99597.50;;;14.79;76.77
34177;BME280;20450;49.074;9.158;2023-05-11T06:25:54;99594.84;;;14.84;73.58
34177;BME280;20450;49.074;9.158;2023-05-11T06:28:22;99581.63;;;14.87;73.18
34177;BME280;20450;49.074;9.158;2023-05-11T06:30:51;99589.28;;;14.90;74.20
34177;BME280;20450;49.074;9.158;2023-05-11T06:33:19;99589.28;;;14.90;71.55
34177;BME280;20450;49.074;9.158;2023-05-11T06:35:47;99589.66;;;14.82;71.43
34177;BME280;20450;49.074;9.158;2023-05-11T06:38:17;99590.84;;;14.86;71.92
34177;BME280;20450;49.074;9.158;2023-05-11T06:40:45;99595.22;;;14.87;71.32
34177;BME280;20450;49.074;9.158;2023-05-11T06:43:12;99600.59;;;14.99;73.89
34177;BME280;20450;49.074;9.158;2023-05-11T06:45:44;99597.25;;;15.08;72.86
34177;BME280;20450;49.074;9.158;2023-05-11T06:48:11;99591.56;;;15.10;72.68
34177;BME280;20450;49.074;9.158;2023-05-11T06:50:38;99595.91;;;15.11;71.39
34177;BME280;20450;49.074;9.158;2023-05-11T06:53:06;99596.16;;;15.09;71.16
34177;BME280;20450;49.074;9.158;2023-05-11T06:55:33;99594.03;;;15.11;70.96
34177;BME280;20450;49.074;9.158;2023-05-11T06:58:02;99592.03;;;15.07;70.16
34177;BME280;20450;49.074;9.158;2023-05-11T07:00:30;99590.81;;;15.14;71.12
34177;BME280;20450;49.074;9.158;2023-05-11T07:02:57;99596.06;;;15.04;70.22
34177;BME280;20450;49.074;9.158;2023-05-11T07:05:24;99590.78;;;14.98;70.34
34177;BME280;20450;49.074;9.158;2023-05-11T07:07:51;99596.47;;;14.96;70.99
34177;BME280;20450;49.074;9.158;2023-05-11T07:10:18;99600.94;;;15.02;71.62
34177;BME280;20450;49.074;9.158;2023-05-11T07:12:46;99596.66;;;15.06;70.67
34177;BME280;20450;49.074;9.158;2023-05-11T07:15:14;99606.38;;;15.02;70.16
34177;BME280;20450;49.074;9.158;2023-05-11T07:17:41;99599.59;;;15.05;70.84
34177;BME280;20450;49.074;9.158;2023-05-11T07:20:09;99603.38;;;14.87;71.74
34177;BME280;20450;49.074;9.158;2023-05-11T07:22:36;99601.25;;;14.89;72.15
34177;BME280;20450;49.074;9.158;2023-05-11T07:25:03;99594.25;;;14.65;72.58
34177;BME280;20450;49.074;9.158;2023-05-11T07:27:33;99607.34;;;14.68;71.81
34177;BME280;20450;49.074;9.158;2023-05-11T07:29:59;99604.81;;;14.78;72.58
34177;BME280;20450;49.074;9.158;2023-05-11T07:32:28;99610.44;;;14.88;72.19
34177;BME280;20450;49.074;9.158;2023-05-11T07:34:55;99602.72;;;14.97;72.04
34177;BME280;20450;49.074;9.158;2023-05-11T07:37:22;99602.97;;;14.95;71.53
34177;BME280;20450;49.074;9.158;2023-05-11T07:39:50;99611.81;;;15.02;71.87
34177;BME280;20450;49.074;9.158;2023-05-11T07:42:18;99611.41;;;15.10;71.29
34177;BME280;20450;49.074;9.158;2023-05-11T07:44:46;99609.03;;;15.14;70.91
34177;BME280;20450;49.074;9.158;2023-05-11T07:47:12;99605.31;;;15.20;70.19
34177;BME280;20450;49.074;9.158;2023-05-11T07:49:41;99602.13;;;15.23;70.02
34177;BME280;20450;49.074;9.158;2023-05-11T07:52:10;99604.25;;;15.21;69.22
34177;BME280;20450;49.074;9.158;2023-05-11T07:54:37;99608.47;;;15.28;72.19
34177;BME280;20450;49.074;9.158;2023-05-11T08:00:47;99603.81;;;15.40;69.54
34177;BME280;20450;49.074;9.158;2023-05-11T08:03:14;99598.59;;;15.55;71.68
34177;BME280;20450;49.074;9.158;2023-05-11T08:05:43;99603.22;;;15.55;70.18
34177;BME280;20450;49.074;9.158;2023-05-11T08:08:10;99607.53;;;15.51;70.51
34177;BME280;20450;49.074;9.158;2023-05-11T08:10:37;99605.88;;;15.50;70.77
34177;BME280;20450;49.074;9.158;2023-05-11T08:13:04;99609.66;;;15.49;71.67
34177;BME280;20450;49.074;9.158;2023-05-11T08:15:31;99609.50;;;15.55;71.13
34177;BME280;20450;49.074;9.158;2023-05-11T08:17:58;99604.66;;;15.57;70.56
34177;BME280;20450;49.074;9.158;2023-05-11T08:20:26;99600.50;;;15.55;70.58
34177;BME280;20450;49.074;9.158;2023-05-11T08:22:54;99603.56;;;15.58;69.75
34177;BME280;20450;49.074;9.158;2023-05-11T08:25:22;99601.50;;;15.65;69.62
34177;BME280;20450;49.074;9.158;2023-05-11T08:27:50;99607.53;;;15.67;68.86
34177;BME280;20450;49.074;9.158;2023-05-11T08:30:18;99602.72;;;15.74;69.97
34177;BME280;20450;49.074;9.158;2023-05-11T08:32:46;99599.84;;;15.81;70.13
34177;BME280;20450;49.074;9.158;2023-05-11T08:35:24;99605.53;;;15.80;70.12
34177;BME280;20450;49.074;9.158;2023-05-11T08:37:51;99612.38;;;15.82;70.90
34177;BME280;20450;49.074;9.158;2023-05-11T08:40:20;99618.00;;;15.76;69.89
34177;BME280;20450;49.074;9.158;2023-05-11T08:42:54;99612.56;;;15.76;70.07
34177;BME280;20450;49.074;9.158;2023-05-11T08:45:21;99621.28;;;15.77;70.00
34177;BME280;20450;49.074;9.158;2023-05-11T08:47:49;99609.59;;;15.77;70.15
34177;BME280;20450;49.074;9.158;2023-05-11T08:50:16;99603.06;;;15.78;69.77
34177;BME280;20450;49.074;9.158;2023-05-11T08:52:43;99615.97;;;15.88;69.78
34177;BME280;20450;49.074;9.158;2023-05-11T08:55:10;99610.41;;;15.77;69.68
34177;BME280;20450;49.074;9.158;2023-05-11T08:57:40;99617.28;;;15.63;69.76
34177;BME280;20450;49.074;9.158;2023-05-11T09:00:11;99612.06;;;15.79;69.38
34177;BME280;20450;49.074;9.158;2023-05-11T09:02:40;99611.38;;;15.71;69.07
34177;BME280;20450;49.074;9.158;2023-05-11T09:05:09;99609.75;;;15.70;70.02
34177;BME280;20450;49.074;9.158;2023-05-11T09:07:37;99617.16;;;15.75;70.09
34177;BME280;20450;49.074;9.158;2023-05-11T09:10:07;99617.66;;;15.72;70.07
34177;BME280;20450;49.074;9.158;2023-05-11T09:12:36;99618.91;;;15.81;69.74
34177;BME280;20450;49.074;9.158;2023-05-11T09:15:06;99620.78;;;15.81;70.44
34177;BME280;20450;49.074;9.158;2023-05-11T09:17:34;99618.56;;;15.94;70.69
34177;BME280;20450;49.074;9.158;2023-05-11T09:20:03;99624.84;;;15.95;69.31
34177;BME280;20450;49.074;9.158;2023-05-11T09:22:36;99613.06;;;16.11;69.46
34177;BME280;20450;49.074;9.158;2023-05-11T09:25:10;99623.22;;;16.15;69.31
34177;BME280;20450;49.074;9.158;2023-05-11T09:27:40;99620.31;;;16.22;68.71
34177;BME280;20450;49.074;9.158;2023-05-11T09:30:15;99619.91;;;16.13;68.52
34177;BME280;20450;49.074;9.158;2023-05-11T09:32:50;99619.19;;;16.01;69.16
34177;BME280;20450;49.074;9.158;2023-05-11T09:35:20;99622.84;;;16.07;69.41
34177;BME280;20450;49.074;9.158;2023-05-11T09:37:57;99621.59;;;15.98;69.57
34177;BME280;20450;49.074;9.158;2023-05-11T09:40:27;99635.16;;;15.93;68.61
34177;BME280;20450;49.074;9.158;2023-05-11T09:43:01;99621.19;;;15.89;67.91
34177;BME280;20450;49.074;9.158;2023-05-11T09:45:38;99622.09;;;15.95;68.52
34177;BME280;20450;49.074;9.158;2023-05-11T09:48:23;99619.63;;;15.93;68.90
34177;BME280;20450;49.074;9.158;2023-05-11T09:51:02;99625.75;;;15.84;68.72
34177;BME280;20450;49.074;9.158;2023-05-11T09:53:39;99619.53;;;15.88;69.18
34177;BME280;20450;49.074;9.158;2023-05-11T09:56:08;99628.38;;;15.95;68.90
34177;BME280;20450;49.074;9.158;2023-05-11T09:58:45;99620.88;;;15.86;68.94
34177;BME280;20450;49.074;9.158;2023-05-11T10:01:17;99617.72;;;15.94;69.29
34177;BME280;20450;49.074;9.158;2023-05-11T10:03:53;99631.19;;;15.84;70.05
34177;BME280;20450;49.074;9.158;2023-05-11T10:06:43;99621.84;;;15.96;70.56
34177;BME280;20450;49.074;9.158;2023-05-11T10:09:12;99618.88;;;15.98;69.38
34177;BME280;20450;49.074;9.158;2023-05-11T10:11:44;99629.53;;;15.83;69.90
34177;BME280;20450;49.074;9.158;2023-05-11T10:14:13;99620.47;;;15.77;69.52
34177;BME280;20450;49.074;9.158;2023-05-11T10:16:43;99615.03;;;15.60;70.24
34177;BME280;20450;49.074;9.158;2023-05-11T10:19:13;99616.34;;;15.74;70.35
34177;BME280;20450;49.074;9.158;2023-05-11T10:21:43;99631.38;;;15.77;70.11
34177;BME280;20450;49.074;9.158;2023-05-11T10:24:11;99617.22;;;15.97;70.93
34177;BME280;20450;49.074;9.158;2023-05-11T10:26:39;99625.69;;;16.17;70.33
34177;BME280;20450;49.074;9.158;2023-05-11T10:29:08;99616.13;;;16.14;69.23
34177;BME280;20450;49.074;9.158;2023-05-11T10:31:36;99622.72;;;16.18;68.84
34177;BME280;20450;49.074;9.158;2023-05-11T10:34:05;99616.84;;;16.26;68.43
34177;BME280;20450;49.074;9.158;2023-05-11T10:36:36;99615.75;;;16.27;68.40
34177;BME280;20450;49.074;9.158;2023-05-11T10:39:05;99612.81;;;16.34;68.06
34177;BME280;20450;49.074;9.158;2023-05-11T10:41:44;99623.81;;;16.39;67.15
34177;BME280;20450;49.074;9.158;2023-05-11T10:44:48;99613.75;;;16.39;67.84
34177;BME280;20450;49.074;9.158;2023-05-11T10:51:12;99597.94;;;16.41;69.61
34177;BME280;20450;49.074;9.158;2023-05-11T10:54:05;99608.78;;;16.36;69.39
34177;BME280;20450;49.074;9.158;2023-05-11T10:56:51;99609.34;;;16.17;69.41
34177;BME280;20450;49.074;9.158;2023-05-11T10:59:47;99603.53;;;15.92;70.79
34177;BME280;20450;49.074;9.158;2023-05-11T11:02:30;99610.75;;;16.03;69.09
34177;BME280;20450;49.074;9.158;2023-05-11T11:04:58;99603.06;;;16.16;68.64
34177;BME280;20450;49.074;9.158;2023-05-11T11:07:28;99604.34;;;16.30;68.99
34177;BME280;20450;49.074;9.158;2023-05-11T11:09:59;99597.38;;;16.39;67.83
34177;BME280;20450;49.074;9.158;2023-05-11T11:12:27;99600.50;;;16.48;67.58
34177;BME280;20450;49.074;9.158;2023-05-11T11:14:57;99600.44;;;16.64;68.28
34177;BME280;20450;49.074;9.158;2023-05-11T11:17:26;99599.09;;;16.67;68.45
34177;BME280;20450;49.074;9.158;2023-05-11T11:19:58;99600.31;;;16.76;67.74
34177;BME280;20450;49.074;9.158;2023-05-11T11:22:46;99597.06;;;16.79;67.79
34177;BME280;20450;49.074;9.158;2023-05-11T11:25:48;99593.63;;;16.88;67.74
34177;BME280;20450;49.074;9.158;2023-05-11T11:28:16;99595.19;;;16.84;66.99
34177;BME280;20450;49.074;9.158;2023-05-11T11:30:43;99594.28;;;16.74;66.73
34177;BME280;20450;49.074;9.158;2023-05-11T11:33:30;99589.03;;;16.94;67.06
34177;BME280;20450;49.074;9.158;2023-05-11T11:35:58;99586.47;;;17.09;67.22
34177;BME280;20450;49.074;9.158;2023-05-11T11:38:29;99586.56;;;17.19;67.22
34177;BME280;20450;49.074;9.158;2023-05-11T11:40:56;99589.13;;;17.30;65.40
34177;BME280;20450;49.074;9.158;2023-05-11T11:43:25;99587.97;;;17.21;64.91
34177;BME280;20450;49.074;9.158;2023-05-11T11:45:54;99591.31;;;17.28;65.26
34177;BME280;20450;49.074;9.158;2023-05-11T11:48:28;99587.78;;;17.33;65.30
34177;BME280;20450;49.074;9.158;2023-05-11T11:51:02;99590.81;;;17.36;65.06
34177;BME280;20450;49.074;9.158;2023-05-11T11:54:05;99585.91;;;17.38;64.11
34177;BME280;20450;49.074;9.158;2023-05-11T11:56:39;99585.84;;;17.28;63.95
34177;BME280;20450;49.074;9.158;2023-05-11T11:59:09;99589.88;;;17.21;61.61
34177;BME280;20450;49.074;9.158;2023-05-11T12:01:41;99588.81;;;17.27;60.73
34177;BME280;20450;49.074;9.158;2023-05-11T12:04:37;99584.91;;;17.44;60.47
34177;BME280;20450;49.074;9.158;2023-05-11T12:07:09;99584.69;;;17.51;61.43
34177;BME280;20450;49.074;9.158;2023-05-11T12:09:44;99580.28;;;17.45;61.64
34177;BME280;20450;49.074;9.158;2023-05-11T12:12:12;99581.78;;;17.63;61.83
34177;BME280;20450;49.074;9.158;2023-05-11T12:14:43;99583.16;;;17.65;62.36
34177;BME280;20450;49.074;9.158;2023-05-11T12:17:17;99568.97;;;17.63;60.94
34177;BME280;20450;49.074;9.158;2023-05-11T12:19:52;99580.16;;;17.62;61.16
34177;BME280;20450;49.074;9.158;2023-05-11T12:22:22;99576.38;;;17.73;60.56
34177;BME280;20450;49.074;9.158;2023-05-11T12:24:54;99579.69;;;17.80;59.15
34177;BME280;20450;49.074;9.158;2023-05-11T12:27:24;99576.13;;;17.42;59.59
34177;BME280;20450;49.074;9.158;2023-05-11T12:29:53;99568.97;;;17.68;58.49
34177;BME280;20450;49.074;9.158;2023-05-11T12:32:27;99563.66;;;17.88;59.19
34177;BME280;20450;49.074;9.158;2023-05-11T12:34:57;99562.66;;;18.04;59.53
34177;BME280;20450;49.074;9.158;2023-05-11T12:37:25;99554.22;;;18.16;60.43
34177;BME280;20450;49.074;9.158;2023-05-11T12:39:57;99557.88;;;18.31;59.20
34177;BME280;20450;49.074;9.158;2023-05-11T12:42:25;99561.72;;;18.35;58.61
34177;BME280;20450;49.074;9.158;2023-05-11T12:44:55;99561.09;;;18.18;58.50
34177;BME280;20450;49.074;9.158;2023-05-11T12:47:22;99551.19;;;18.07;58.88
34177;BME280;20450;49.074;9.158;2023-05-11T12:49:50;99552.06;;;18.23;58.91
34177;BME280;20450;49.074;9.158;2023-05-11T12:52:17;99551.28;;;18.27;57.70
34177;BME280;20450;49.074;9.158;2023-05-11T12:54:48;99548.63;;;18.37;57.48
34177;BME280;20450;49.074;9.158;2023-05-11T12:57:24;99543.97;;;18.38;55.92
34177;BME280;20450;49.074;9.158;2023-05-11T13:00:10;99536.63;;;18.43;57.54
34177;BME280;20450;49.074;9.158;2023-05-11T13:02:48;99532.41;;;18.21;57.73
34177;BME280;20450;49.074;9.158;2023-05-11T13:05:18;99538.19;;;18.34;56.96
34177;BME280;20450;49.074;9.158;2023-05-11T13:08:01;99536.53;;;18.33;57.97
34177;BME280;20450;49.074;9.158;2023-05-11T13:10:31;99528.88;;;18.30;57.29
34177;BME280;20450;49.074;9.158;2023-05-11T13:13:27;99522.69;;;18.45;57.53
34177;BME280;20450;49.074;9.158;2023-05-11T13:15:56;99526.28;;;18.55;57.64
34177;BME280;20450;49.074;9.158;2023-05-11T13:18:23;99529.03;;;18.65;56.53
34177;BME280;20450;49.074;9.158;2023-05-11T13:21:03;99523.53;;;18.70;56.06
34177;BME280;20450;49.074;9.158;2023-05-11T13:23:31;99514.56;;;18.85;54.92
34177;BME280;20450;49.074;9.158;2023-05-11T13:25:58;99516.00;;;18.26;55.47
34177;BME280;20450;49.074;9.158;2023-05-11T13:28:28;99510.41;;;18.52;56.80
34177;BME280;20450;49.074;9.158;2023-05-11T13:30:59;99512.06;;;18.73;56.00
34177;BME280;20450;49.074;9.158;2023-05-11T13:33:27;99511.81;;;18.80;54.55
34177;BME280;20450;49.074;9.158;2023-05-11T13:35:54;99507.72;;;18.87;54.33
34177;BME280;20450;49.074;9.158;2023-05-11T13:38:22;99507.19;;;19.00;55.08